Canadian, Oklahoma
Current Conditions -  °F | °C
As of 8:20 AM on Thursday 18 Dec 2014 (Local Time) from KMLC Reporting Station
Overcast Overcast  
Wind Chill: 42°   Ceiling: 500
Heat Index: 42°   Visibility: 8mi
Dew Point: 40°   Wind: 0mph
Humidity: 92%   Direction: NA
Pressure: 30.18"   Gusts: NA
Location:  35.18°N, 95.66°W
Report Text: KMLC 181420Z AUTO 00000KT 8SM OVC005 06/04 A3018 RMK AO2 CIG 002V006 T00560044
Loading
Personal Weather Stations






























Interactive Weather Map New forecast layout! Learn more

10-Day Weather Forecast

Advertisements
Track Severe Weather on mobile